Time;durP1;ratioP1;P1;durP2;ratioP2;P2;SDS_P1;SDS_P2;PMS_P1;PMS_P2;Temp;Humidity;BMP_temperature;BMP_pressure;BME280_temperature;BME280_humidity;BME280_pressure;Samples;Min_cycle;Max_cycle;Signal;HPM_P1;HPM_P2
2021/08/08 00:00:38;;;;;;;6.83;6.00;;;;;;;19.98;84.18;100197.22;1707775;83;21249;-55
2021/08/08 00:03:44;;;;;;;6.92;5.70;;;;;;;19.93;83.82;100210.98;1687169;84;21892;-55
2021/08/08 00:06:52;;;;;;;6.50;5.65;;;;;;;19.92;83.49;100227.33;1666288;86;21276;-56
2021/08/08 00:09:57;;;;;;;7.47;6.35;;;;;;;19.88;83.21;100217.80;1666852;86;21423;-57
2021/08/08 00:13:03;;;;;;;8.60;5.87;;;;;;;19.86;82.80;100221.34;1655684;84;21750;-56
2021/08/08 00:16:09;;;;;;;9.40;6.17;;;;;;;19.85;82.50;100226.05;1658092;84;21335;-56
2021/08/08 00:19:13;;;;;;;6.83;5.78;;;;;;;19.83;82.28;100229.63;1680366;85;21454;-56
2021/08/08 00:22:19;;;;;;;7.92;5.33;;;;;;;19.82;82.12;100236.82;1696997;84;21198;-56
2021/08/08 00:25:24;;;;;;;6.37;5.72;;;;;;;19.79;81.89;100220.63;1697945;84;21731;-56
2021/08/08 00:28:28;;;;;;;6.62;5.42;;;;;;;19.77;81.61;100231.13;1744365;82;21350;-56
2021/08/08 00:31:34;;;;;;;5.85;5.25;;;;;;;19.75;81.40;100234.68;1741710;82;21430;-56
2021/08/08 00:34:42;;;;;;;6.60;5.22;;;;;;;19.70;81.09;100222.05;1741807;82;21463;-56
2021/08/08 00:37:48;;;;;;;6.87;4.90;;;;;;;19.67;80.87;100218.36;1741940;82;21386;-56
2021/08/08 00:40:56;;;;;;;6.40;5.53;;;;;;;19.64;80.61;100192.45;1741850;82;21839;-56
2021/08/08 00:44:03;;;;;;;6.45;4.83;;;;;;;19.61;80.43;100193.80;1741817;82;21390;-56
2021/08/08 00:47:10;;;;;;;7.85;4.70;;;;;;;19.56;80.29;100176.14;1730659;82;21239;-56
2021/08/08 00:50:18;;;;;;;8.08;4.78;;;;;;;19.51;80.01;100168.53;1742714;82;21188;-56
2021/08/08 00:53:23;;;;;;;7.85;4.80;;;;;;;19.45;79.91;100161.69;1749975;82;21331;-56
2021/08/08 00:56:29;;;;;;;9.58;4.75;;;;;;;19.40;79.73;100153.23;1729098;82;21374;-55
2021/08/08 00:59:34;;;;;;;6.17;4.35;;;;;;;19.34;79.60;100149.49;1749519;80;21418;-56
2021/08/08 01:02:42;;;;;;;6.60;4.55;;;;;;;19.30;79.58;100148.26;1752169;82;21381;-55
2021/08/08 01:05:59;;;;;;;9.48;4.60;;;;;;;19.28;79.73;100147.11;1752051;82;21244;-55
2021/08/08 01:09:10;;;;;;;5.80;4.45;;;;;;;19.27;79.51;100147.31;1730199;82;21851;-57
2021/08/08 01:12:15;;;;;;;6.10;4.30;;;;;;;19.24;79.26;100134.77;1724831;82;21215;-54
2021/08/08 01:15:20;;;;;;;5.28;4.15;;;;;;;19.20;79.24;100136.31;1752158;82;21279;-55
2021/08/08 01:18:25;;;;;;;4.60;4.00;;;;;;;19.19;79.21;100155.45;1752151;82;21385;-55
2021/08/08 01:21:33;;;;;;;6.67;4.58;;;;;;;19.16;79.15;100148.98;1752238;82;21349;-55
2021/08/08 01:24:39;;;;;;;8.03;5.12;;;;;;;19.15;79.04;100143.68;1752025;82;21374;-55
2021/08/08 01:27:45;;;;;;;5.30;4.22;;;;;;;19.12;78.93;100144.98;1752089;82;21196;-56
2021/08/08 01:30:52;;;;;;;5.92;3.87;;;;;;;19.11;78.98;100147.46;1751907;82;21232;-55
2021/08/08 01:33:59;;;;;;;8.13;4.80;;;;;;;19.10;78.91;100147.17;1752046;82;21335;-56
2021/08/08 01:37:04;;;;;;;6.20;4.72;;;;;;;19.10;78.79;100149.94;1729376;82;21362;-55
2021/08/08 01:40:24;;;;;;;9.18;4.83;;;;;;;19.09;78.69;100152.39;1752188;82;21373;-56
2021/08/08 01:43:36;;;;;;;7.20;4.30;;;;;;;19.10;78.65;100153.25;1751934;82;21382;-56
2021/08/08 01:46:43;;;;;;;9.33;4.42;;;;;;;19.09;78.49;100144.06;1738608;82;21374;-56
2021/08/08 01:49:50;;;;;;;7.17;4.47;;;;;;;19.07;78.50;100144.87;1720921;82;21366;-56
2021/08/08 01:52:56;;;;;;;12.23;4.72;;;;;;;19.05;78.45;100150.33;1736319;82;21848;-55
2021/08/08 01:56:01;;;;;;;6.30;4.35;;;;;;;19.01;78.40;100150.52;1736286;82;21312;-56
2021/08/08 01:59:09;;;;;;;4.87;4.08;;;;;;;18.99;78.24;100156.30;1736482;81;21389;-55
2021/08/08 02:02:20;;;;;;;6.60;3.90;;;;;;;18.97;78.29;100167.31;1737089;82;21844;-55
2021/08/08 02:05:28;;;;;;;6.15;4.17;;;;;;;18.94;78.22;100172.80;1736280;82;21342;-55
2021/08/08 02:08:35;;;;;;;5.83;3.70;;;;;;;18.92;78.28;100175.48;1721115;82;21350;-55
2021/08/08 02:11:42;;;;;;;5.72;3.65;;;;;;;18.91;78.29;100177.97;1744776;82;21430;-61
2021/08/08 02:14:50;;;;;;;5.33;3.52;;;;;;;18.89;78.22;100200.92;1742410;82;21272;-56
2021/08/08 02:17:59;;;;;;;5.12;3.72;;;;;;;18.87;78.27;100210.88;1736296;82;21809;-57
2021/08/08 02:21:07;;;;;;;6.30;3.62;;;;;;;18.86;78.27;100219.42;1736380;82;21359;-56
2021/08/08 02:24:12;;;;;;;4.33;3.42;;;;;;;18.84;78.24;100226.59;1723201;82;21344;-56
2021/08/08 02:27:20;;;;;;;5.35;3.65;;;;;;;18.85;78.09;100235.21;1736349;82;21371;-56
2021/08/08 02:30:28;;;;;;;4.67;3.72;;;;;;;18.82;78.02;100236.25;1736412;82;21209;-56
2021/08/08 02:33:36;;;;;;;5.60;3.50;;;;;;;18.76;78.01;100240.78;1736248;82;21276;-57
2021/08/08 02:36:42;;;;;;;7.78;3.50;;;;;;;18.72;78.04;100242.34;1740058;82;21395;-56
2021/08/08 02:39:49;;;;;;;5.97;4.35;;;;;;;18.69;78.16;100256.67;1736879;82;21315;-58
2021/08/08 02:42:55;;;;;;;5.03;3.70;;;;;;;18.68;78.38;100248.02;1736277;82;21205;-56
2021/08/08 02:46:01;;;;;;;6.03;3.72;;;;;;;18.71;78.44;100245.34;1736219;81;21243;-56
2021/08/08 02:49:08;;;;;;;4.78;4.05;;;;;;;18.71;78.37;100244.78;1736283;82;21374;-57
2021/08/08 02:52:13;;;;;;;5.62;3.60;;;;;;;18.72;78.41;100247.88;1737067;82;21252;-56
2021/08/08 02:55:19;;;;;;;4.65;4.08;;;;;;;18.76;78.43;100256.03;1739620;82;21714;-57
2021/08/08 02:58:25;;;;;;;7.65;4.37;;;;;;;18.77;78.25;100246.66;1736440;82;21406;-56
2021/08/08 03:01:30;;;;;;;9.45;3.98;;;;;;;18.80;78.21;100255.89;1736327;81;21343;-57
2021/08/08 03:04:36;;;;;;;5.47;4.05;;;;;;;18.83;78.06;100253.18;1720640;82;21343;-57
2021/08/08 03:07:42;;;;;;;5.83;3.87;;;;;;;18.83;77.90;100236.02;1744680;82;21201;-57
2021/08/08 03:10:52;;;;;;;5.50;4.30;;;;;;;18.81;77.74;100235.91;1744679;82;21231;-56
2021/08/08 03:14:00;;;;;;;5.35;3.67;;;;;;;18.80;77.80;100241.17;1742899;82;21319;-57
2021/08/08 03:17:07;;;;;;;6.03;4.22;;;;;;;18.77;77.87;100238.33;1736293;82;21233;-56
2021/08/08 03:20:15;;;;;;;5.62;4.47;;;;;;;18.80;77.90;100230.93;1736440;82;21343;-57
2021/08/08 03:23:22;;;;;;;4.83;4.33;;;;;;;18.81;77.88;100250.64;1735714;81;21200;-55
2021/08/08 03:26:30;;;;;;;5.72;4.03;;;;;;;18.82;78.04;100254.27;1736337;82;21339;-55
2021/08/08 03:29:37;;;;;;;8.58;4.58;;;;;;;18.84;78.03;100246.02;1736391;82;21920;-56
2021/08/08 03:32:42;;;;;;;5.12;4.12;;;;;;;18.86;77.99;100243.86;1736333;82;21394;-55
2021/08/08 03:35:49;;;;;;;5.12;4.03;;;;;;;18.84;78.08;100259.88;1736408;82;21209;-54
2021/08/08 03:39:01;;;;;;;5.30;4.42;;;;;;;18.85;78.17;100252.42;1736422;82;21311;-55
2021/08/08 03:42:06;;;;;;;7.47;4.62;;;;;;;18.86;78.22;100249.41;1736351;82;21228;-57
2021/08/08 03:45:12;;;;;;;11.90;4.90;;;;;;;18.88;78.27;100256.97;1736465;82;21343;-55
2021/08/08 03:48:18;;;;;;;5.58;4.55;;;;;;;18.91;78.44;100260.66;1736452;82;21307;-55
2021/08/08 03:51:26;;;;;;;7.65;4.50;;;;;;;18.96;78.41;100262.73;1736367;82;21386;-56
2021/08/08 03:54:31;;;;;;;6.90;5.00;;;;;;;18.99;78.30;100256.19;1736435;82;21347;-56
2021/08/08 03:57:38;;;;;;;7.58;4.92;;;;;;;19.05;78.43;100260.80;1736566;82;21343;-55
2021/08/08 04:00:46;;;;;;;5.40;4.90;;;;;;;19.13;78.31;100267.94;1736731;82;21355;-55
2021/08/08 04:03:51;;;;;;;7.62;4.97;;;;;;;19.20;78.18;100265.38;1729685;82;21378;-55
2021/08/08 04:06:58;;;;;;;6.20;4.87;;;;;;;19.28;78.11;100264.26;1742001;82;21367;-55
2021/08/08 04:10:04;;;;;;;5.35;4.78;;;;;;;19.36;77.72;100255.56;1741659;82;21375;-56
2021/08/08 04:13:10;;;;;;;7.42;5.28;;;;;;;19.42;77.50;100278.25;1724612;82;21307;-56
2021/08/08 04:16:15;;;;;;;6.85;5.12;;;;;;;19.49;77.36;100271.22;1741653;82;21449;-56
2021/08/08 04:19:22;;;;;;;6.65;4.75;;;;;;;19.57;77.31;100265.33;1741856;82;21422;-57
2021/08/08 04:22:30;;;;;;;6.33;5.15;;;;;;;19.65;76.93;100266.34;1741943;82;21390;-56
2021/08/08 04:25:36;;;;;;;5.10;4.55;;;;;;;19.71;76.71;100259.30;1741794;82;21389;-56
2021/08/08 04:28:42;;;;;;;6.47;5.20;;;;;;;19.81;76.61;100265.13;1741979;82;21817;-57
2021/08/08 04:31:50;;;;;;;6.33;4.85;;;;;;;19.90;76.26;100267.03;1741777;81;21205;-56
2021/08/08 04:34:56;;;;;;;6.00;5.35;;;;;;;19.97;75.90;100263.59;1741842;82;21393;-56
2021/08/08 04:38:02;;;;;;;8.08;5.30;;;;;;;19.99;75.56;100262.81;1718720;82;21385;-57
2021/08/08 04:41:07;;;;;;;6.92;5.28;;;;;;;20.03;75.59;100268.17;1741838;82;21236;-55
2021/08/08 04:44:14;;;;;;;7.90;5.10;;;;;;;20.10;75.45;100274.48;1741956;82;21714;-56
2021/08/08 04:47:20;;;;;;;9.85;5.42;;;;;;;20.17;75.32;100277.48;1741833;82;21419;-56
2021/08/08 04:50:27;;;;;;;6.97;5.20;;;;;;;20.24;75.04;100274.58;1741888;82;21243;-55
2021/08/08 04:53:33;;;;;;;8.08;4.92;;;;;;;20.30;74.78;100272.22;1719633;82;21334;-56
2021/08/08 04:56:38;;;;;;;7.20;5.40;;;;;;;20.36;74.70;100274.06;1741773;82;21390;-56
2021/08/08 04:59:48;;;;;;;6.12;4.58;;;;;;;20.42;74.90;100277.26;1741891;82;21386;-57
2021/08/08 05:02:56;;;;;;;6.60;5.50;;;;;;;20.48;74.60;100277.67;1738154;81;21485;-57
2021/08/08 05:06:01;;;;;;;6.03;4.85;;;;;;;20.52;74.50;100282.50;1724379;82;21220;-57
2021/08/08 05:09:10;;;;;;;7.05;5.83;;;;;;;20.56;74.39;100280.09;1724316;82;21201;-57
2021/08/08 05:12:16;;;;;;;6.35;5.53;;;;;;;20.59;74.17;100283.77;1725024;83;21241;-58
2021/08/08 05:15:22;;;;;;;8.63;5.87;;;;;;;20.56;74.01;100280.95;1728189;82;21215;-57
2021/08/08 05:18:28;;;;;;;6.92;5.45;;;;;;;20.59;74.12;100284.63;1728400;83;21721;-57
2021/08/08 05:21:33;;;;;;;8.75;5.72;;;;;;;20.64;74.40;100290.84;1728555;82;21260;-57
2021/08/08 05:24:39;;;;;;;7.10;5.45;;;;;;;20.73;74.18;100308.31;1728617;83;21205;-56
2021/08/08 05:27:45;;;;;;;7.37;5.83;;;;;;;20.79;74.04;100299.52;1728769;82;21204;-57
2021/08/08 05:30:53;;;;;;;8.43;5.72;;;;;;;20.84;74.26;100307.99;1728058;83;21170;-56
2021/08/08 05:34:00;;;;;;;11.05;6.50;;;;;;;20.92;73.74;100290.92;1728855;82;21181;-57
2021/08/08 05:37:06;;;;;;;11.65;5.92;;;;;;;21.00;73.65;100287.79;1728645;82;21228;-56
2021/08/08 05:40:12;;;;;;;8.60;6.00;;;;;;;21.12;73.89;100297.52;1728544;82;21210;-55
2021/08/08 05:43:22;;;;;;;8.88;6.12;;;;;;;21.21;73.77;100295.48;1689633;84;21757;-56
2021/08/08 05:46:29;;;;;;;7.83;6.05;;;;;;;21.26;73.56;100296.98;1699121;84;21240;-55
2021/08/08 05:49:35;;;;;;;8.38;6.05;;;;;;;21.33;73.42;100294.89;1699563;84;21856;-57
2021/08/08 05:52:41;;;;;;;6.28;5.60;;;;;;;21.40;73.49;100299.78;1698987;84;21232;-57
2021/08/08 05:55:48;;;;;;;10.32;6.55;;;;;;;21.50;73.65;100304.70;1706108;84;21232;-56
2021/08/08 05:58:57;;;;;;;8.48;5.80;;;;;;;21.60;73.06;100308.52;1672048;84;21225;-56
2021/08/08 06:02:02;;;;;;;7.55;6.20;;;;;;;21.64;72.51;100308.88;1706458;84;21228;-56
2021/08/08 06:05:07;;;;;;;8.65;6.33;;;;;;;21.69;72.46;100311.20;1717685;81;21205;-55
2021/08/08 06:08:16;;;;;;;7.47;6.35;;;;;;;21.76;72.28;100314.72;1725276;83;21438;-57
2021/08/08 06:11:22;;;;;;;11.10;6.75;;;;;;;21.83;72.24;100305.67;1680293;84;21237;-56
2021/08/08 06:14:28;;;;;;;12.28;6.47;;;;;;;21.91;71.66;100310.80;1702654;82;21227;-56
2021/08/08 06:17:32;;;;;;;8.78;6.28;;;;;;;21.98;71.71;100304.53;1699587;84;21713;-57
2021/08/08 06:20:39;;;;;;;9.10;6.15;;;;;;;22.05;71.56;100313.59;1696449;84;21386;-56
2021/08/08 06:23:47;;;;;;;9.43;6.53;;;;;;;22.13;71.18;100310.39;1696791;84;21377;-57
2021/08/08 06:26:53;;;;;;;7.72;6.58;;;;;;;22.20;70.69;100302.69;1696749;84;21387;-55
2021/08/08 06:29:59;;;;;;;8.63;7.12;;;;;;;22.27;70.42;100303.06;1696443;84;21325;-54
2021/08/08 06:33:07;;;;;;;9.93;6.30;;;;;;;22.33;70.08;100292.27;1696819;84;21281;-57
2021/08/08 06:36:15;;;;;;;7.10;6.40;;;;;;;22.35;69.74;100293.73;1696793;84;21205;-57
2021/08/08 06:39:20;;;;;;;8.08;6.12;;;;;;;22.37;69.68;100291.53;1721909;83;21975;-57
2021/08/08 06:42:26;;;;;;;8.18;6.42;;;;;;;22.42;69.95;100301.93;1724807;83;21411;-56
2021/08/08 06:45:34;;;;;;;9.85;6.03;;;;;;;22.49;69.76;100288.63;1679107;85;21387;-58
2021/08/08 06:48:43;;;;;;;7.03;6.12;;;;;;;22.56;69.87;100293.53;1678284;85;21695;-58
2021/08/08 06:51:50;;;;;;;8.33;6.47;;;;;;;22.69;69.83;100302.95;1664476;85;21740;-57
2021/08/08 06:54:57;;;;;;;9.45;6.67;;;;;;;22.81;69.60;100295.29;1730569;83;21723;-57
2021/08/08 06:58:04;;;;;;;6.92;6.22;;;;;;;22.91;68.85;100298.23;1731069;83;21200;-58
2021/08/08 07:01:28;;;;;;;8.80;6.42;;;;;;;23.00;68.36;100301.72;1678027;85;21371;-57
2021/08/08 07:04:34;;;;;;;7.15;6.45;;;;;;;23.06;68.30;100299.28;1673062;85;21274;-57
2021/08/08 07:07:41;;;;;;;10.60;6.62;;;;;;;23.14;67.84;100291.84;1706933;83;21260;-57
2021/08/08 07:10:47;;;;;;;7.65;6.53;;;;;;;23.23;68.20;100285.27;1699469;84;21777;-57
2021/08/08 07:13:54;;;;;;;7.87;6.30;;;;;;;23.31;67.98;100288.45;1699059;84;21257;-57
2021/08/08 07:17:00;;;;;;;6.72;6.00;;;;;;;23.42;67.75;100279.66;1699223;84;21757;-57
2021/08/08 07:20:08;;;;;;;6.70;5.75;;;;;;;23.50;67.20;100277.77;1699220;84;21264;-57
2021/08/08 07:23:14;;;;;;;6.47;5.60;;;;;;;23.56;66.66;100269.17;1699784;84;21773;-56
2021/08/08 07:26:20;;;;;;;8.98;6.25;;;;;;;23.64;66.95;100258.92;1699484;84;21244;-57
2021/08/08 07:29:26;;;;;;;10.15;6.35;;;;;;;23.75;66.40;100250.65;1699465;84;21565;-56
2021/08/08 07:32:31;;;;;;;8.23;5.90;;;;;;;23.83;66.24;100244.03;1699467;84;21247;-55
2021/08/08 07:35:40;;;;;;;6.83;5.55;;;;;;;23.94;65.37;100257.00;1716848;83;21278;-55
2021/08/08 07:38:47;;;;;;;7.12;5.58;;;;;;;24.00;65.55;100260.70;1706865;84;21889;-55
2021/08/08 07:41:55;;;;;;;8.70;5.75;;;;;;;24.10;65.50;100246.81;1707019;83;21458;-56
2021/08/08 07:45:00;;;;;;;7.10;5.80;;;;;;;24.19;64.76;100252.19;1706204;83;21841;-57
2021/08/08 07:48:06;;;;;;;6.75;5.50;;;;;;;24.27;64.25;100262.34;1704190;84;22222;-57
2021/08/08 07:51:12;;;;;;;8.05;5.70;;;;;;;24.36;64.61;100264.92;1698795;84;21824;-56
2021/08/08 07:54:19;;;;;;;6.70;5.47;;;;;;;24.48;63.97;100259.95;1698638;84;21233;-57
2021/08/08 07:57:29;;;;;;;6.87;5.67;;;;;;;24.55;63.16;100264.77;1681709;84;21228;-56
2021/08/08 08:00:36;;;;;;;6.12;5.53;;;;;;;24.58;62.65;100248.84;1699404;84;21292;-57
2021/08/08 08:03:42;;;;;;;7.95;5.97;;;;;;;24.65;62.71;100255.05;1699896;84;21182;-56
2021/08/08 08:06:50;;;;;;;6.10;5.42;;;;;;;24.70;62.78;100250.92;1695233;81;21359;-57
2021/08/08 08:09:57;;;;;;;7.33;5.12;;;;;;;24.75;62.33;100257.92;1684424;85;21217;-56
2021/08/08 08:13:04;;;;;;;7.05;5.50;;;;;;;24.81;61.95;100262.47;1684667;84;21276;-57
2021/08/08 08:16:10;;;;;;;8.55;5.83;;;;;;;24.82;62.19;100262.73;1719649;82;21778;-57
2021/08/08 08:19:17;;;;;;;7.72;5.65;;;;;;;24.85;62.30;100269.74;1690981;85;21229;-58
2021/08/08 08:22:24;;;;;;;6.53;5.70;;;;;;;24.88;62.17;100264.45;1683447;84;21204;-57
2021/08/08 08:25:33;;;;;;;6.70;6.00;;;;;;;24.94;62.42;100274.55;1697922;82;21892;-57
2021/08/08 08:28:38;;;;;;;8.75;5.45;;;;;;;25.07;62.68;100277.42;1719001;83;21288;-57
2021/08/08 08:31:45;;;;;;;8.88;5.40;;;;;;;25.20;62.52;100272.72;1720682;83;21283;-57
2021/08/08 08:34:51;;;;;;;7.92;5.37;;;;;;;25.31;61.49;100277.83;1675915;85;21360;-56
2021/08/08 08:37:56;;;;;;;7.15;5.05;;;;;;;25.37;61.51;100277.58;1676034;85;21203;-56
2021/08/08 08:41:03;;;;;;;5.97;5.33;;;;;;;25.43;60.97;100271.44;1647043;86;21240;-57
2021/08/08 08:44:10;;;;;;;9.83;6.47;;;;;;;25.45;60.70;100261.63;1647230;86;21205;-57
2021/08/08 08:47:28;;;;;;;8.45;6.20;;;;;;;25.48;60.35;100267.25;1666746;85;21230;-57
2021/08/08 08:50:31;;;;;;;10.23;5.78;;;;;;;25.49;60.72;100276.80;1676386;85;21403;-56
2021/08/08 08:53:37;;;;;;;6.20;5.35;;;;;;;25.56;60.55;100277.94;1664383;84;21259;-56
2021/08/08 08:56:47;;;;;;;7.47;5.28;;;;;;;25.62;60.13;100279.62;1661705;86;22241;-56
2021/08/08 08:59:56;;;;;;;8.88;5.30;;;;;;;25.68;60.26;100268.15;1648609;86;21852;-57
2021/08/08 09:03:06;;;;;;;7.37;5.47;;;;;;;25.72;60.13;100269.84;1668483;86;21735;-57
2021/08/08 09:06:12;;;;;;;7.08;5.35;;;;;;;25.76;59.69;100263.95;1668194;86;21250;-57
2021/08/08 09:09:20;;;;;;;6.70;5.80;;;;;;;25.80;60.10;100274.91;1670297;82;21302;-57
2021/08/08 09:12:34;;;;;;;7.45;5.80;;;;;;;25.80;59.50;100285.55;1670216;84;21915;-56
2021/08/08 09:15:50;;;;;;;6.05;5.30;;;;;;;25.80;59.37;100281.34;1670708;84;21918;-58
2021/08/08 09:19:00;;;;;;;7.70;5.85;;;;;;;25.78;59.51;100276.56;1674741;84;21212;-57
2021/08/08 09:22:05;;;;;;;11.40;5.50;;;;;;;25.80;59.94;100270.70;1693076;84;21196;-57
2021/08/08 09:25:16;;;;;;;9.55;5.58;;;;;;;25.88;60.54;100271.53;1686480;84;21323;-57
2021/08/08 09:28:27;;;;;;;8.33;5.50;;;;;;;25.94;60.62;100277.45;1681839;83;21855;-58
2021/08/08 09:31:35;;;;;;;9.88;5.75;;;;;;;26.01;60.71;100280.29;1679732;84;21747;-58
2021/08/08 09:34:54;;;;;;;8.48;5.80;;;;;;;26.05;60.09;100272.98;1685682;85;21228;-57
2021/08/08 09:38:11;;;;;;;8.10;6.28;;;;;;;26.07;59.66;100281.97;1685278;85;21227;-57
2021/08/08 09:41:17;;;;;;;8.65;5.95;;;;;;;26.05;59.87;100281.98;1685830;85;21279;-55
2021/08/08 09:44:24;;;;;;;9.00;6.05;;;;;;;26.07;60.06;100264.28;1686145;85;21219;-57
2021/08/08 09:47:49;;;;;;;7.95;5.97;;;;;;;26.11;60.21;100271.03;1685957;85;21208;-57
2021/08/08 09:50:54;;;;;;;9.53;6.58;;;;;;;26.17;60.23;100280.58;1672628;83;21227;-57
2021/08/08 09:54:05;;;;;;;7.62;6.05;;;;;;;26.21;60.20;100277.48;1670236;86;21389;-57
2021/08/08 09:57:09;;;;;;;8.80;5.87;;;;;;;26.30;60.43;100280.58;1671079;84;21886;-56
2021/08/08 10:00:36;;;;;;;10.58;6.58;;;;;;;26.36;60.60;100268.22;1654702;86;21290;-55
2021/08/08 10:03:41;;;;;;;8.28;6.20;;;;;;;26.47;60.68;100262.88;1667241;84;21797;-57
2021/08/08 10:06:48;;;;;;;8.05;6.30;;;;;;;26.57;60.40;100268.48;1702554;84;21227;-58
2021/08/08 10:09:58;;;;;;;7.58;6.20;;;;;;;26.64;60.06;100265.39;1709722;80;21200;-56
2021/08/08 10:13:14;;;;;;;8.00;5.87;;;;;;;26.70;60.08;100279.73;1709004;83;21244;-58
2021/08/08 10:16:21;;;;;;;10.35;6.53;;;;;;;26.85;60.06;100273.51;1704280;84;21228;-56
2021/08/08 10:19:29;;;;;;;7.22;6.37;;;;;;;27.08;59.03;100276.25;1701565;84;21217;-56
2021/08/08 10:22:36;;;;;;;8.45;5.90;;;;;;;27.28;58.96;100274.23;1680676;85;21876;-56
2021/08/08 10:25:42;;;;;;;6.72;6.00;;;;;;;27.45;57.96;100264.86;1645427;85;21382;-57
2021/08/08 10:28:49;;;;;;;11.20;6.33;;;;;;;27.59;57.34;100270.13;1650849;86;21399;-57
2021/08/08 10:31:56;;;;;;;15.53;6.22;;;;;;;27.74;57.16;100267.23;1650663;86;21287;-58
2021/08/08 10:35:03;;;;;;;9.30;6.10;;;;;;;27.89;55.61;100278.99;1704254;82;21256;-55
2021/08/08 10:38:11;;;;;;;9.35;5.62;;;;;;;27.93;55.63;100280.08;1677169;85;21363;-56
2021/08/08 10:41:18;;;;;;;8.75;5.55;;;;;;;28.00;54.80;100279.20;1671419;86;21795;-57
2021/08/08 10:44:23;;;;;;;10.63;6.70;;;;;;;28.06;54.34;100288.42;1727199;82;21507;-56
2021/08/08 10:47:40;;;;;;;9.30;5.30;;;;;;;28.15;54.38;100293.14;1740035;82;21926;-56
2021/08/08 10:50:55;;;;;;;10.13;5.25;;;;;;;28.25;54.52;100293.07;1696232;84;21279;-56
2021/08/08 10:54:10;;;;;;;7.08;5.55;;;;;;;28.40;54.06;100300.56;1651906;86;21224;-56
2021/08/08 10:57:19;;;;;;;7.42;5.70;;;;;;;28.48;53.22;100303.59;1696933;84;21683;-56
2021/08/08 11:00:25;;;;;;;8.65;5.55;;;;;;;28.54;52.80;100307.22;1652181;86;21259;-56
2021/08/08 11:03:32;;;;;;;8.75;5.90;;;;;;;28.56;53.61;100295.92;1698275;84;21414;-58
2021/08/08 11:06:39;;;;;;;8.68;5.97;;;;;;;28.64;52.55;100300.06;1661911;85;21331;-56
2021/08/08 11:09:47;;;;;;;8.00;5.22;;;;;;;28.75;53.01;100302.49;1706787;82;21308;-56
2021/08/08 11:12:53;;;;;;;7.33;5.40;;;;;;;28.93;52.28;100299.49;1684144;84;21264;-57
2021/08/08 11:15:59;;;;;;;6.85;5.65;;;;;;;29.00;51.46;100295.77;1653370;85;21243;-57
2021/08/08 11:19:06;;;;;;;8.68;5.45;;;;;;;29.12;51.76;100316.80;1669914;84;21751;-57
2021/08/08 11:22:23;;;;;;;7.22;5.45;;;;;;;29.23;51.25;100302.00;1651766;85;21946;-56
2021/08/08 11:25:28;;;;;;;6.97;4.80;;;;;;;29.35;50.54;100304.40;1668481;86;21250;-58
2021/08/08 11:28:36;;;;;;;6.80;4.62;;;;;;;29.46;50.68;100301.72;1668328;86;21207;-58
2021/08/08 11:31:45;;;;;;;9.30;5.10;;;;;;;29.55;50.44;100295.10;1668567;86;21803;-57
2021/08/08 11:34:51;;;;;;;7.28;5.00;;;;;;;29.58;50.45;100288.85;1670900;84;21460;-58
2021/08/08 11:37:57;;;;;;;10.05;5.80;;;;;;;29.61;49.85;100297.27;1670375;84;21235;-57
2021/08/08 11:41:04;;;;;;;6.20;4.97;;;;;;;29.64;49.66;100301.77;1669102;86;21911;-57
2021/08/08 11:44:12;;;;;;;9.75;5.60;;;;;;;29.62;49.20;100296.15;1658282;85;21223;-58
2021/08/08 11:47:19;;;;;;;8.30;5.72;;;;;;;29.62;49.52;100290.50;1663123;86;21391;-58
2021/08/08 11:50:32;;;;;;;9.55;5.45;;;;;;;29.57;49.97;100281.54;1709667;84;21280;-57
2021/08/08 11:53:40;;;;;;;8.35;5.83;;;;;;;29.62;49.49;100289.09;1686221;83;21414;-57
2021/08/08 11:56:47;;;;;;;6.55;5.33;;;;;;;29.56;49.32;100296.77;1682575;84;21240;-57
2021/08/08 11:59:57;;;;;;;8.13;6.35;;;;;;;29.65;50.17;100285.69;1738062;81;21207;-57
2021/08/08 12:03:03;;;;;;;7.85;5.20;;;;;;;29.65;50.17;100285.69;1729232;81;21233;-58
2021/08/08 12:06:11;;;;;;;7.67;4.92;;;;;;;29.77;50.24;100288.89;1690961;84;21239;-57
2021/08/08 12:09:21;;;;;;;7.47;5.72;;;;;;;29.93;48.47;100282.73;1671583;82;21825;-58
2021/08/08 12:12:41;;;;;;;8.58;5.17;;;;;;;29.93;48.47;100282.73;1696067;83;21394;-57
2021/08/08 12:15:46;;;;;;;6.17;4.90;;;;;;;30.02;48.98;100285.13;1699253;84;21339;-57
2021/08/08 12:18:51;;;;;;;7.40;5.12;;;;;;;30.12;48.85;100283.56;1699289;84;21335;-57
2021/08/08 12:22:03;;;;;;;10.30;5.55;;;;;;;30.10;49.00;100281.61;1700368;84;21299;-58
2021/08/08 12:25:19;;;;;;;8.85;5.47;;;;;;;30.10;49.47;100292.05;1701039;82;21260;-57
2021/08/08 12:28:32;;;;;;;7.67;5.10;;;;;;;30.01;48.61;100287.69;1712181;83;21452;-58
2021/08/08 12:31:46;;;;;;;8.73;5.45;;;;;;;29.97;48.19;100287.20;1718539;83;21218;-58
2021/08/08 12:34:51;;;;;;;11.15;4.83;;;;;;;29.94;48.91;100290.05;1714740;83;21785;-57
2021/08/08 12:37:56;;;;;;;7.70;4.72;;;;;;;29.89;48.56;100285.88;1659869;84;21217;-57
2021/08/08 12:41:02;;;;;;;5.97;4.55;;;;;;;29.84;48.12;100284.57;1617987;88;21301;-58
2021/08/08 12:44:10;;;;;;;5.30;4.40;;;;;;;29.83;48.44;100278.64;1635271;87;21641;-57
2021/08/08 12:47:17;;;;;;;6.78;4.62;;;;;;;29.80;47.80;100293.92;1692112;84;21208;-57
2021/08/08 12:50:30;;;;;;;9.43;4.95;;;;;;;29.80;47.80;100293.92;1695400;83;21767;-57
2021/08/08 12:53:36;;;;;;;6.15;4.95;;;;;;;29.75;48.10;100289.20;1698565;84;21362;-56
2021/08/08 12:56:41;;;;;;;7.85;4.42;;;;;;;29.76;48.65;100287.23;1754493;81;21224;-56
2021/08/08 12:59:48;;;;;;;9.35;4.60;;;;;;;29.79;49.05;100282.38;1758365;81;21197;-56
2021/08/08 13:02:58;;;;;;;6.00;4.92;;;;;;;29.82;49.42;100281.77;1757634;81;21200;-55
2021/08/08 13:06:08;;;;;;;7.22;4.50;;;;;;;29.80;49.42;100284.89;1704820;82;21287;-57
2021/08/08 13:09:13;;;;;;;5.80;4.37;;;;;;;29.83;48.73;100295.58;1698644;84;21920;-57
2021/08/08 13:12:18;;;;;;;5.85;4.33;;;;;;;29.88;47.83;100289.86;1716828;81;21242;-57
2021/08/08 13:15:23;;;;;;;7.53;4.60;;;;;;;29.89;47.84;100291.53;1704185;84;21204;-55
2021/08/08 13:18:30;;;;;;;7.25;4.70;;;;;;;29.89;47.84;100291.53;1704407;82;21235;-56
2021/08/08 13:21:38;;;;;;;9.53;4.85;;;;;;;29.95;48.26;100290.89;1699200;84;21916;-57
2021/08/08 13:24:43;;;;;;;6.10;4.87;;;;;;;29.95;48.26;100290.89;1698360;84;21196;-58
2021/08/08 13:27:48;;;;;;;5.45;4.22;;;;;;;29.98;47.85;100288.30;1698611;84;21347;-56
2021/08/08 13:30:52;;;;;;;6.45;4.62;;;;;;;30.04;47.21;100291.31;1697738;84;21224;-56
2021/08/08 13:33:58;;;;;;;12.15;4.80;;;;;;;30.06;47.83;100280.55;1697566;84;21208;-57
2021/08/08 13:37:13;;;;;;;6.17;4.70;;;;;;;30.10;47.50;100288.66;1697840;84;21772;-61
2021/08/08 13:40:15;;;;;;;7.22;4.40;;;;;;;30.12;47.18;100292.03;1703657;84;21555;-56
2021/08/08 13:43:23;;;;;;;8.93;4.78;;;;;;;30.12;47.18;100292.03;1709416;82;21229;-56
2021/08/08 13:46:31;;;;;;;11.35;4.87;;;;;;;30.14;47.34;100284.09;1728505;83;21374;-56
2021/08/08 13:49:38;;;;;;;7.65;4.62;;;;;;;30.09;47.90;100273.44;1687588;84;21362;-56
2021/08/08 13:52:45;;;;;;;5.92;4.75;;;;;;;30.09;47.90;100273.44;1686628;84;21359;-56
2021/08/08 13:55:53;;;;;;;6.83;4.55;;;;;;;30.09;46.89;100289.82;1686094;84;21454;-57
2021/08/08 13:59:00;;;;;;;5.97;4.45;;;;;;;30.08;46.55;100284.48;1687027;84;21895;-57
2021/08/08 14:02:05;;;;;;;7.58;4.72;;;;;;;30.10;47.54;100283.58;1685175;84;21295;-56
2021/08/08 14:05:15;;;;;;;6.40;4.30;;;;;;;30.10;47.54;100283.58;1733615;82;21955;-56
2021/08/08 14:08:20;;;;;;;6.92;4.67;;;;;;;30.13;47.54;100279.58;1728346;83;21486;-56
2021/08/08 14:11:25;;;;;;;8.43;5.10;;;;;;;30.10;46.64;100285.84;1705659;82;22061;-56
2021/08/08 14:14:30;;;;;;;9.43;4.60;;;;;;;30.07;46.91;100283.63;1719802;81;21316;-58
2021/08/08 14:17:37;;;;;;;7.87;4.72;;;;;;;30.07;46.91;100283.63;1675688;83;21232;-57
2021/08/08 14:20:42;;;;;;;6.87;5.08;;;;;;;30.10;46.29;100285.84;1680487;83;21276;-56
2021/08/08 14:23:49;;;;;;;8.40;5.30;;;;;;;30.09;46.10;100285.59;1670880;86;21281;-57
2021/08/08 14:26:55;;;;;;;11.95;5.97;;;;;;;30.10;47.16;100293.47;1716064;83;21434;-56
2021/08/08 14:30:01;;;;;;;10.43;5.65;;;;;;;30.16;47.78;100289.44;1712080;83;21734;-56